Time;durP1;ratioP1;P1;durP2;ratioP2;P2;SDS_P1;SDS_P2;PMS_P1;PMS_P2;Temp;Humidity;BMP_temperature;BMP_pressure;BME280_temperature;BME280_humidity;BME280_pressure;Samples;Min_cycle;Max_cycle;Signal;HPM_P1;HPM_P2
2023/09/01 00:01:03;;;;;;;6.85;2.38;;;12.40;99.90;;;11.29;100.00;100537.56;5021094;28;20428;-78
2023/09/01 00:03:28;;;;;;;7.68;2.83;;;12.40;99.90;;;11.32;100.00;100535.66;5003031;28;20041;-78
2023/09/01 00:05:54;;;;;;;8.20;2.50;;;12.50;99.90;;;11.34;100.00;100537.31;5002364;28;20529;-77
2023/09/01 00:08:21;;;;;;;6.32;3.05;;;12.40;99.90;;;11.35;100.00;100538.16;4992024;28;20033;-77
2023/09/01 00:10:46;;;;;;;8.45;2.78;;;12.50;99.90;;;11.34;100.00;100537.31;5004827;28;20065;-77
2023/09/01 00:13:12;;;;;;;7.88;2.80;;;12.50;99.90;;;11.34;100.00;100541.69;5005699;28;20514;-78
2023/09/01 00:15:38;;;;;;;5.38;3.15;;;12.50;99.90;;;11.31;100.00;100539.25;4998789;28;20026;-77
2023/09/01 00:18:05;;;;;;;10.90;3.05;;;12.50;99.90;;;11.29;100.00;100539.31;5004808;28;20073;-76
2023/09/01 00:20:34;;;;;;;7.57;3.05;;;12.50;99.90;;;11.27;100.00;100534.16;5002929;28;20060;-77
2023/09/01 00:23:02;;;;;;;7.30;3.30;;;12.50;99.90;;;11.28;100.00;100542.91;5002148;28;20025;-78
2023/09/01 00:25:28;;;;;;;9.40;3.10;;;12.40;99.90;;;11.31;100.00;100534.81;5018809;28;20033;-76
2023/09/01 00:27:54;;;;;;;5.78;3.03;;;12.40;99.90;;;11.31;100.00;100536.59;5004026;28;20411;-77
2023/09/01 00:30:19;;;;;;;9.93;3.53;;;12.50;99.90;;;11.32;100.00;100533.03;5002344;28;20053;-77
2023/09/01 00:32:45;;;;;;;8.07;3.28;;;12.50;99.90;;;11.32;100.00;100531.25;5019369;28;20038;-77
2023/09/01 00:35:11;;;;;;;9.80;3.15;;;12.50;99.90;;;11.40;100.00;100533.47;5003145;28;20025;-77
2023/09/01 00:37:37;;;;;;;5.45;3.50;;;12.50;99.90;;;11.44;100.00;100542.94;5002154;28;20677;-77
2023/09/01 00:40:04;;;;;;;0.00;0.00;;;12.50;99.90;;;11.47;100.00;100540.16;5002301;28;20616;-77
2023/09/01 00:42:30;;;;;;;114.47;69.88;;;12.60;99.90;;;11.53;100.00;100536.31;4999591;28;20527;-77
2023/09/01 00:44:55;;;;;;;0.35;0.35;;;12.60;99.90;;;11.59;100.00;100541.25;5005534;28;20064;-77
2023/09/01 00:47:21;;;;;;;9.98;3.80;;;12.70;99.90;;;11.63;100.00;100534.91;5004383;28;20033;-77
2023/09/01 00:49:47;;;;;;;7.72;3.40;;;12.70;99.90;;;11.70;100.00;100538.88;5004315;28;20092;-76
2023/09/01 00:52:13;;;;;;;6.35;3.65;;;12.80;99.90;;;11.75;100.00;100536.88;5002259;28;20108;-78
2023/09/01 00:54:39;;;;;;;9.15;3.35;;;12.80;99.90;;;11.78;100.00;100538.50;5001717;28;20041;-76
2023/09/01 00:57:05;;;;;;;8.20;3.65;;;12.90;99.90;;;11.82;100.00;100530.31;5002318;28;20041;-77
2023/09/01 00:59:31;;;;;;;7.03;3.30;;;12.90;99.90;;;11.84;100.00;100536.38;4985476;28;20040;-77
2023/09/01 01:01:57;;;;;;;12.25;3.22;;;13.00;99.90;;;11.89;100.00;100541.41;5002294;28;20061;-77
2023/09/01 01:04:24;;;;;;;6.97;3.60;;;13.00;99.90;;;11.90;100.00;100538.69;4992751;28;20559;-77
2023/09/01 01:07:35;;;;;;;8.60;3.50;;;13.00;99.90;;;11.94;100.00;100539.34;4998677;28;20064;-77
2023/09/01 01:10:16;;;;;;;9.35;3.47;;;13.10;99.90;;;11.97;100.00;100544.50;5022689;28;20033;-77
2023/09/01 01:13:13;;;;;;;7.03;3.28;;;13.10;99.90;;;11.99;100.00;100537.34;5003464;28;20032;-77
2023/09/01 01:15:39;;;;;;;8.35;3.70;;;13.10;99.90;;;12.03;100.00;100538.88;5002142;28;20479;-77
2023/09/01 01:18:11;;;;;;;10.90;3.97;;;13.20;99.90;;;12.07;100.00;100547.44;4992141;28;20045;-77
2023/09/01 01:20:53;;;;;;;7.20;3.25;;;13.20;99.90;;;12.08;100.00;100534.19;4989991;28;20025;-77
2023/09/01 01:23:20;;;;;;;6.32;3.63;;;13.20;99.90;;;12.11;100.00;100536.63;5025147;28;20029;-77
2023/09/01 01:25:51;;;;;;;8.95;3.88;;;13.20;99.90;;;12.13;100.00;100536.56;5000158;28;20033;-77
2023/09/01 01:28:19;;;;;;;8.98;3.33;;;13.20;99.90;;;12.16;100.00;100535.53;5018751;28;20586;-77
2023/09/01 01:30:47;;;;;;;9.82;3.28;;;13.30;99.90;;;12.17;100.00;100538.09;5003427;28;20044;-76
2023/09/01 01:33:54;;;;;;;8.63;3.17;;;13.30;99.90;;;12.18;100.00;100539.81;5017660;28;20022;-77
2023/09/01 01:36:36;;;;;;;7.10;3.25;;;13.30;99.90;;;12.21;100.00;100549.34;5002066;28;20496;-77
2023/09/01 01:39:15;;;;;;;8.75;3.40;;;13.30;99.90;;;12.21;100.00;100544.06;5001882;28;20038;-77
2023/09/01 01:41:59;;;;;;;6.78;3.00;;;13.30;99.90;;;12.25;100.00;100553.50;5017660;28;20034;-77
2023/09/01 01:44:33;;;;;;;7.22;3.10;;;13.30;99.90;;;12.25;100.00;100550.88;5018259;28;20045;-77
2023/09/01 01:47:00;;;;;;;180.15;133.20;;;13.40;99.90;;;12.29;100.00;100549.75;5003682;28;20022;-76
2023/09/01 01:49:28;;;;;;;10.70;3.50;;;13.40;99.90;;;12.30;100.00;100546.16;4985312;28;20029;-77
2023/09/01 01:51:53;;;;;;;10.40;3.20;;;13.40;99.90;;;12.34;100.00;100550.34;5000685;28;20052;-77
2023/09/01 01:54:19;;;;;;;4.70;3.20;;;13.40;99.90;;;12.34;100.00;100545.06;5001057;28;20516;-77
2023/09/01 01:56:45;;;;;;;11.25;3.08;;;13.40;99.90;;;12.35;100.00;100546.75;5003198;28;20064;-77
2023/09/01 01:59:10;;;;;;;3.58;2.75;;;13.40;99.90;;;12.37;100.00;100554.59;5001359;28;20029;-76
2023/09/01 02:01:36;;;;;;;8.57;2.90;;;13.40;99.90;;;12.37;100.00;100550.16;5018450;28;20041;-77
2023/09/01 02:04:05;;;;;;;7.00;2.83;;;13.50;99.90;;;12.38;100.00;100548.38;4987917;28;20106;-77
2023/09/01 02:06:31;;;;;;;8.30;3.28;;;13.50;99.90;;;12.36;100.00;100542.34;5001808;28;20033;-76
2023/09/01 02:08:57;;;;;;;11.77;3.10;;;13.40;99.90;;;12.36;100.00;100537.91;5003913;28;20030;-76
2023/09/01 02:11:22;;;;;;;6.40;2.63;;;13.50;99.90;;;12.36;100.00;100547.63;4988422;28;20466;-76
2023/09/01 02:13:48;;;;;;;8.52;3.22;;;13.50;99.90;;;12.34;100.00;100546.84;5002425;28;20026;-77
2023/09/01 02:16:14;;;;;;;5.03;2.70;;;13.40;99.90;;;12.31;100.00;100550.53;5001967;28;20061;-76
2023/09/01 02:18:40;;;;;;;11.15;3.28;;;13.40;99.90;;;12.31;100.00;100543.44;5000867;28;20084;-77
2023/09/01 02:21:06;;;;;;;4.25;2.58;;;14.00;99.90;;;12.31;100.00;100550.53;5003376;28;20034;-76
2023/09/01 02:23:31;;;;;;;4.35;2.75;;;13.40;99.90;;;12.26;100.00;100549.91;5000707;28;20640;-77
2023/09/01 02:25:57;;;;;;;5.80;2.60;;;13.40;99.90;;;12.25;100.00;100553.50;5002376;28;20030;-76
2023/09/01 02:28:23;;;;;;;7.90;2.80;;;13.40;99.90;;;12.24;100.00;100547.34;5000247;28;20048;-77
2023/09/01 02:30:49;;;;;;;6.40;2.20;;;13.40;99.90;;;12.28;100.00;100555.97;5002357;28;20080;-77
2023/09/01 02:33:14;;;;;;;8.73;2.58;;;13.40;99.90;;;12.27;100.00;100554.28;5004708;28;20345;-77
2023/09/01 02:35:44;;;;;;;7.90;2.45;;;13.30;99.90;;;12.25;100.00;100550.88;5002229;28;20511;-76
2023/09/01 02:38:11;;;;;;;9.95;2.35;;;13.30;99.90;;;12.24;100.00;100552.63;5019015;28;20038;-77
2023/09/01 02:40:37;;;;;;;4.90;2.22;;;13.30;99.90;;;12.24;100.00;100557.91;5005140;28;20037;-77
2023/09/01 02:43:03;;;;;;;10.05;2.65;;;13.30;99.90;;;12.23;100.00;100552.75;4990329;28;20034;-76
2023/09/01 02:45:29;;;;;;;5.38;2.30;;;13.30;99.90;;;12.22;100.00;100551.88;4993883;28;20099;-76
2023/09/01 02:47:55;;;;;;;10.10;2.80;;;13.30;99.90;;;12.18;100.00;100547.72;5004879;28;20043;-77
2023/09/01 02:50:20;;;;;;;4.60;2.53;;;13.30;99.90;;;12.18;100.00;100552.13;4994739;28;20459;-77
2023/09/01 02:52:46;;;;;;;8.82;2.60;;;13.30;99.90;;;12.16;100.00;100548.72;5006175;28;20079;-77
2023/09/01 02:55:14;;;;;;;10.52;2.85;;;13.30;99.90;;;12.14;100.00;100550.59;5024590;28;20033;-77
2023/09/01 02:57:40;;;;;;;7.72;3.35;;;13.20;99.90;;;12.10;100.00;100544.66;5004405;28;20022;-77
2023/09/01 03:00:14;;;;;;;6.85;3.05;;;13.20;99.90;;;12.07;100.00;100550.09;5004784;28;20411;-77
2023/09/01 03:02:42;;;;;;;6.80;2.50;;;13.20;99.90;;;12.04;100.00;100543.19;5027960;28;20571;-77
2023/09/01 03:05:08;;;;;;;5.93;2.22;;;13.20;99.90;;;12.03;100.00;100538.00;4996461;28;20037;-77
2023/09/01 03:07:35;;;;;;;10.45;2.65;;;13.20;99.90;;;12.02;100.00;100542.44;5005833;28;20161;-77
2023/09/01 03:10:01;;;;;;;9.63;2.38;;;13.10;99.90;;;11.99;100.00;100534.69;5003564;28;20030;-77
2023/09/01 03:12:27;;;;;;;11.57;3.20;;;13.00;99.90;;;11.96;100.00;100540.13;4988356;28;20029;-78
2023/09/01 03:14:53;;;;;;;8.52;3.05;;;13.10;99.90;;;11.94;100.00;100542.00;5004487;28;20087;-77
2023/09/01 03:17:18;;;;;;;8.32;2.75;;;13.10;99.90;;;11.90;100.00;100538.69;5005155;28;20551;-77
2023/09/01 03:19:44;;;;;;;8.82;3.05;;;13.00;99.90;;;11.89;100.00;100544.06;5004762;28;20041;-76
2023/09/01 03:22:10;;;;;;;8.02;3.28;;;13.00;99.90;;;11.85;100.00;100545.97;5021173;28;20033;-77
2023/09/01 03:24:36;;;;;;;9.50;3.00;;;12.90;99.90;;;11.83;100.00;100547.84;5003540;28;20056;-77
2023/09/01 03:27:02;;;;;;;11.52;3.30;;;12.90;99.90;;;11.79;100.00;100540.19;5004495;28;20112;-77
2023/09/01 03:29:28;;;;;;;11.20;3.20;;;12.90;99.90;;;11.76;100.00;100549.13;5002700;28;20579;-77
2023/09/01 03:31:53;;;;;;;11.70;3.28;;;12.90;99.90;;;11.74;100.00;100550.13;5005140;28;20037;-77
2023/09/01 03:34:19;;;;;;;7.97;2.78;;;12.80;99.90;;;11.71;100.00;100556.44;5006077;28;20038;-77
2023/09/01 03:36:45;;;;;;;10.48;3.17;;;12.80;99.90;;;11.67;100.00;100550.47;5011110;28;20065;-76
2023/09/01 03:39:10;;;;;;;10.45;3.50;;;12.80;99.90;;;11.64;100.00;100553.28;5002160;28;20038;-77
2023/09/01 03:41:37;;;;;;;9.23;3.35;;;12.80;99.90;;;11.62;100.00;100546.34;4994825;28;20021;-77
2023/09/01 03:44:02;;;;;;;12.25;3.30;;;12.70;99.90;;;11.61;100.00;100549.94;4993814;28;20094;-77
2023/09/01 03:46:28;;;;;;;10.50;3.45;;;12.80;99.90;;;11.58;100.00;100539.56;5004616;28;20688;-77
2023/09/01 03:48:54;;;;;;;10.88;3.13;;;12.70;99.90;;;11.56;100.00;100538.81;5004339;28;20025;-76
2023/09/01 03:51:20;;;;;;;9.85;3.60;;;12.70;99.90;;;11.54;100.00;100541.50;5003870;28;20041;-77
2023/09/01 03:53:45;;;;;;;12.15;3.35;;;12.70;99.90;;;11.55;100.00;100540.56;5004945;28;20045;-76
2023/09/01 03:56:17;;;;;;;10.35;3.58;;;12.70;99.90;;;11.56;100.00;100549.34;5004668;28;20026;-77
2023/09/01 03:58:43;;;;;;;7.80;3.30;;;12.70;99.90;;;11.58;100.00;100552.75;5003833;28;20030;-77
2023/09/01 04:01:13;;;;;;;20.55;4.00;;;12.70;99.90;;;11.59;100.00;100550.00;5004670;28;20037;-77
2023/09/01 04:03:43;;;;;;;10.73;3.28;;;12.70;99.90;;;11.62;100.00;100549.88;5026736;28;20080;-77
2023/09/01 04:06:09;;;;;;;9.93;3.53;;;12.70;99.90;;;11.64;100.00;100544.50;5006200;28;20064;-76
2023/09/01 04:08:35;;;;;;;12.10;3.38;;;12.80;99.90;;;11.63;100.00;100546.28;5023431;28;20061;-77
2023/09/01 04:11:08;;;;;;;11.48;3.50;;;12.80;99.90;;;11.66;100.00;100547.91;5002122;28;20125;-77
2023/09/01 04:13:35;;;;;;;8.10;3.13;;;12.80;99.90;;;11.67;100.00;100545.19;4993560;28;21176;-77
2023/09/01 04:16:01;;;;;;;8.65;2.90;;;12.80;99.90;;;11.68;100.00;100546.91;5003978;28;20026;-76
2023/09/01 04:18:27;;;;;;;7.85;3.30;;;12.80;99.90;;;11.72;100.00;100549.38;5004689;28;20390;-77
2023/09/01 04:20:54;;;;;;;9.25;3.22;;;12.80;99.90;;;11.72;100.00;100550.22;5003425;28;20025;-77
2023/09/01 04:23:21;;;;;;;7.55;3.33;;;12.80;99.90;;;11.72;100.00;100552.84;4984926;28;20021;-77
2023/09/01 04:25:48;;;;;;;15.50;3.50;;;12.90;99.90;;;11.73;100.00;100549.28;5001254;28;20029;-77
2023/09/01 04:28:15;;;;;;;10.10;3.50;;;12.90;99.90;;;11.74;100.00;100550.97;5003371;28;20030;-77
2023/09/01 04:30:42;;;;;;;8.32;3.47;;;12.90;99.90;;;11.74;100.00;100558.06;5003226;28;20026;-77
2023/09/01 04:33:08;;;;;;;9.52;4.40;;;12.90;99.90;;;11.75;100.00;100557.09;5002902;28;20051;-76
2023/09/01 04:35:34;;;;;;;13.52;4.30;;;12.90;99.90;;;11.76;100.00;100564.09;4990940;28;20292;-76
2023/09/01 04:38:00;;;;;;;9.43;3.95;;;12.90;99.90;;;11.76;100.00;100561.47;5002347;28;20029;-76
2023/09/01 04:40:27;;;;;;;16.38;3.97;;;12.90;99.90;;;11.77;100.00;100561.38;5007084;28;20029;-77
2023/09/01 04:42:53;;;;;;;14.27;3.72;;;12.90;99.90;;;11.79;100.00;100571.81;4993249;28;20029;-76
2023/09/01 04:45:19;;;;;;;10.35;3.75;;;12.90;99.90;;;11.80;100.00;100570.91;5002392;28;20042;-77
2023/09/01 04:47:44;;;;;;;9.32;4.70;;;12.90;99.90;;;11.84;100.00;100575.94;4989067;28;20084;-77
2023/09/01 04:50:11;;;;;;;10.77;4.40;;;13.00;99.90;;;11.90;100.00;100574.78;5001449;28;20511;-76
2023/09/01 04:52:37;;;;;;;12.70;4.82;;;13.00;99.90;;;11.92;100.00;100583.44;5019752;28;20029;-76
2023/09/01 04:55:04;;;;;;;11.95;5.15;;;13.00;99.90;;;12.00;100.00;100583.88;5020519;28;20077;-77
2023/09/01 04:57:30;;;;;;;10.88;4.35;;;13.10;99.90;;;12.05;100.00;100588.91;5002465;28;20441;-77
2023/09/01 04:59:56;;;;;;;8.52;4.65;;;13.10;99.90;;;12.13;100.00;100591.13;5019671;28;20025;-77
2023/09/01 05:02:22;;;;;;;16.30;5.35;;;13.10;99.90;;;12.17;100.00;100590.88;5020977;28;20047;-76
2023/09/01 05:04:48;;;;;;;10.98;4.70;;;13.20;99.90;;;12.22;100.00;100598.53;5003591;28;20033;-77
2023/09/01 05:07:14;;;;;;;13.93;5.20;;;13.30;99.90;;;12.23;100.00;100595.81;5001620;28;20084;-77
2023/09/01 05:09:39;;;;;;;12.63;4.75;;;13.30;99.90;;;12.31;100.00;100605.97;5000819;28;20053;-76
2023/09/01 05:12:05;;;;;;;20.50;5.25;;;13.40;99.90;;;12.35;100.00;100610.13;5002584;28;20034;-77
2023/09/01 05:14:31;;;;;;;11.48;5.20;;;13.40;99.90;;;12.39;100.00;100610.81;5000704;28;20751;-76
2023/09/01 05:16:57;;;;;;;15.40;5.40;;;13.50;99.90;;;12.41;100.00;100607.13;4993828;28;20037;-77
2023/09/01 05:19:22;;;;;;;13.82;5.10;;;13.50;99.90;;;12.44;100.00;100609.63;5019361;28;21331;-76
2023/09/01 05:21:48;;;;;;;11.90;5.18;;;13.50;99.90;;;12.46;100.00;100597.19;5019948;28;20041;-77
2023/09/01 05:24:14;;;;;;;13.30;5.13;;;13.50;99.90;;;12.50;100.00;100611.03;5021142;28;20033;-77
2023/09/01 05:26:40;;;;;;;12.98;5.13;;;13.50;99.90;;;12.52;100.00;100620.59;5002863;28;20097;-77
2023/09/01 05:29:06;;;;;;;10.45;5.60;;;13.60;99.90;;;12.56;100.00;100623.91;4999737;28;20511;-77
2023/09/01 05:31:32;;;;;;;9.05;5.10;;;13.60;99.90;;;12.61;100.00;100613.97;5020207;28;20032;-77
2023/09/01 05:33:58;;;;;;;13.88;5.75;;;13.60;99.90;;;12.67;100.00;100610.09;5019602;28;20131;-76
2023/09/01 05:36:23;;;;;;;14.23;5.88;;;13.70;99.90;;;12.77;100.00;100621.00;5001805;28;20057;-77
2023/09/01 05:38:49;;;;;;;13.80;6.60;;;13.80;99.90;;;12.83;100.00;100629.44;5002316;28;20037;-77
2023/09/01 05:41:15;;;;;;;16.23;5.93;;;13.80;99.90;;;12.90;100.00;100628.13;5004895;28;20064;-76
2023/09/01 05:43:40;;;;;;;14.15;6.72;;;13.90;99.90;;;12.97;100.00;100630.41;4991479;28;20029;-77
2023/09/01 05:46:06;;;;;;;15.18;6.40;;;14.00;99.90;;;13.04;100.00;100632.59;5004143;28;20060;-77
2023/09/01 05:48:32;;;;;;;12.10;6.30;;;14.00;99.90;;;13.09;100.00;100627.91;5004417;28;20483;-77
2023/09/01 05:50:58;;;;;;;11.45;5.97;;;14.10;99.90;;;13.18;100.00;100625.66;5004582;28;20025;-77
2023/09/01 05:53:26;;;;;;;10.52;6.03;;;14.10;99.90;;;13.22;100.00;100628.03;5001163;28;20049;-76
2023/09/01 05:55:51;;;;;;;10.82;5.70;;;14.20;99.90;;;13.25;100.00;100633.13;5001701;28;20040;-76
2023/09/01 05:58:17;;;;;;;10.63;6.10;;;14.20;99.90;;;13.27;100.00;100630.41;5001689;28;20094;-77
2023/09/01 06:00:43;;;;;;;17.15;6.22;;;14.20;99.90;;;13.27;100.00;100625.97;4991472;28;20037;-77
2023/09/01 06:03:08;;;;;;;11.52;5.38;;;14.30;99.90;;;13.36;100.00;100635.16;5000729;28;20100;-76
2023/09/01 06:05:34;;;;;;;14.80;6.15;;;14.40;99.90;;;13.48;100.00;100634.44;4986928;28;20026;-76
2023/09/01 06:08:00;;;;;;;10.27;5.47;;;14.40;99.90;;;13.60;100.00;100632.84;5000669;28;20038;-77
2023/09/01 06:10:25;;;;;;;14.75;5.45;;;14.50;99.90;;;13.83;100.00;100641.19;5001043;28;20806;-77
2023/09/01 06:12:51;;;;;;;16.08;5.53;;;14.70;99.90;;;14.10;100.00;100647.41;5001596;28;20084;-76
2023/09/01 06:15:17;;;;;;;14.98;5.57;;;14.80;99.90;;;14.20;100.00;100646.84;5026818;22;20413;-71
2023/09/01 06:17:42;;;;;;;14.63;5.82;;;15.00;99.90;;;14.48;100.00;100651.22;4988316;28;20085;-71
2023/09/01 06:20:09;;;;;;;14.07;5.40;;;15.20;99.90;;;14.65;100.00;100658.13;4992027;28;20042;-72
2023/09/01 06:22:37;;;;;;;12.73;5.93;;;15.40;99.90;;;14.92;99.78;100661.63;4975076;28;20506;-72
2023/09/01 06:25:03;;;;;;;12.57;5.63;;;15.50;99.90;;;15.06;99.00;100667.81;4973362;28;20034;-72
2023/09/01 06:27:29;;;;;;;13.98;6.13;;;15.80;99.90;;;15.54;97.81;100662.81;4986952;28;20081;-71
2023/09/01 06:29:56;;;;;;;11.23;5.80;;;16.10;99.90;;;16.13;95.41;100680.88;4974624;28;20038;-72
2023/09/01 06:32:23;;;;;;;13.27;5.63;;;16.40;99.90;;;16.10;93.04;100676.63;5002462;28;20739;-72
2023/09/01 06:34:49;;;;;;;12.90;5.00;;;16.60;99.90;;;16.14;91.92;100666.66;4985390;28;20061;-72
2023/09/01 06:37:15;;;;;;;11.20;5.78;;;16.60;99.90;;;15.89;90.74;100678.97;4986246;28;20028;-71
2023/09/01 06:39:40;;;;;;;8.68;5.50;;;16.60;99.90;;;15.96;91.06;100674.09;4986165;28;20399;-72
2023/09/01 06:42:07;;;;;;;13.68;5.72;;;16.70;99.90;;;16.08;91.45;100672.38;5002698;28;20044;-71
2023/09/01 06:44:33;;;;;;;13.57;5.68;;;16.80;99.90;;;16.48;90.46;100683.69;5003879;28;20129;-72
2023/09/01 06:46:58;;;;;;;11.85;4.70;;;17.10;99.90;;;17.75;85.51;100683.13;4984706;28;20033;-71
2023/09/01 06:49:24;;;;;;;10.40;4.82;;;17.80;99.90;;;19.87;77.08;100701.47;4985912;28;20031;-72
2023/09/01 06:51:50;;;;;;;10.15;4.40;;;19.00;99.90;;;22.41;69.38;100718.53;4968557;28;20045;-72
2023/09/01 06:54:15;;;;;;;11.98;3.97;;;20.40;99.90;;;23.60;63.91;100734.53;5001406;28;20037;-73
2023/09/01 06:56:41;;;;;;;12.52;3.75;;;21.80;99.90;;;24.75;60.60;100746.84;4990572;28;20021;-74
2023/09/01 06:59:09;;;;;;;11.40;3.60;;;21.90;99.90;;;24.63;60.71;100750.84;5005154;28;20681;-75
2023/09/01 07:01:35;;;;;;;9.85;4.05;;;23.00;99.90;;;23.45;61.15;100728.88;5002604;28;20033;-73
2023/09/01 07:04:03;;;;;;;8.98;4.07;;;23.20;99.90;;;23.69;60.40;100746.19;5001585;28;20045;-74
2023/09/01 07:06:28;;;;;;;8.93;3.50;;;23.20;99.90;;;22.79;62.26;100734.59;4981494;28;20497;-74
2023/09/01 07:08:54;;;;;;;8.40;3.00;;;23.30;99.90;;;24.63;58.67;100764.28;4985398;28;20041;-74
2023/09/01 07:11:21;;;;;;;12.40;3.58;;;23.50;99.90;;;23.45;59.52;100755.75;5004984;28;20497;-74
2023/09/01 07:13:46;;;;;;;9.48;3.38;;;23.30;99.90;;;23.20;60.53;100753.84;4986432;28;20029;-73
2023/09/01 07:16:13;;;;;;;6.90;3.22;;;23.40;99.90;;;23.88;60.10;100767.53;4983571;28;20108;-73
2023/09/01 07:18:39;;;;;;;4.72;3.03;;;23.30;99.90;;;22.63;61.09;100756.69;4981495;28;20567;-73
2023/09/01 07:21:05;;;;;;;10.30;3.20;;;22.90;99.90;;;21.77;63.19;100755.00;4984699;28;20041;-74
2023/09/01 07:23:31;;;;;;;7.32;3.40;;;22.50;99.90;;;22.34;62.57;100760.38;4984879;28;20034;-74
2023/09/01 07:25:59;;;;;;;11.65;3.17;;;22.80;99.90;;;23.76;60.86;100774.19;4985839;28;20072;-72
2023/09/01 07:28:25;;;;;;;9.65;2.97;;;23.40;99.90;;;23.60;60.38;100768.63;4984438;28;20083;-72
2023/09/01 07:30:51;;;;;;;9.77;2.92;;;23.40;99.90;;;22.62;60.58;100766.59;5003217;28;20034;-73
2023/09/01 07:33:17;;;;;;;7.55;2.80;;;23.10;99.90;;;22.02;62.16;100758.03;4984661;28;20515;-72
2023/09/01 07:35:50;;;;;;;5.88;2.83;;;22.80;99.90;;;21.90;62.42;100760.06;4982288;28;20038;-72
2023/09/01 07:38:17;;;;;;;7.60;2.78;;;22.40;99.90;;;22.23;62.75;100756.03;4984707;28;20026;-72
2023/09/01 07:40:44;;;;;;;11.40;2.80;;;22.90;99.90;;;24.06;59.24;100786.34;4976832;28;20060;-72
2023/09/01 07:43:10;;;;;;;7.35;2.72;;;23.80;99.90;;;24.03;59.12;100788.50;4983681;28;20057;-71
2023/09/01 07:45:36;;;;;;;5.53;2.53;;;24.20;99.90;;;24.02;58.80;100792.19;4988456;28;20129;-72
2023/09/01 07:48:03;;;;;;;11.93;3.08;;;24.20;99.90;;;23.55;58.80;100795.97;5002436;28;20030;-72
2023/09/01 07:50:30;;;;;;;8.70;2.63;;;24.00;99.90;;;23.16;59.70;100795.44;5001492;28;20207;-72
2023/09/01 07:52:59;;;;;;;8.95;2.75;;;23.50;99.90;;;22.30;61.02;100794.69;5000868;28;20425;-72
2023/09/01 07:55:26;;;;;;;5.20;2.30;;;22.90;99.90;;;21.41;63.13;100786.88;4967806;28;20172;-72
2023/09/01 07:57:52;;;;;;;7.65;2.75;;;22.10;99.90;;;20.33;65.82;100778.66;4983679;28;20443;-72
2023/09/01 08:00:18;;;;;;;8.90;2.97;;;21.50;99.90;;;20.07;66.84;100773.72;4985428;28;20064;-71
2023/09/01 08:02:43;;;;;;;43.22;12.98;;;21.20;99.90;;;19.87;68.31;100773.59;4985570;28;20053;-72
2023/09/01 08:05:10;;;;;;;23.38;5.82;;;20.90;99.90;;;20.00;69.29;100773.41;4997327;28;20511;-72
2023/09/01 08:07:36;;;;;;;34.13;11.00;;;20.80;99.90;;;19.92;69.02;100773.19;4983874;28;20034;-72
2023/09/01 08:10:03;;;;;;;13.32;4.75;;;20.60;99.90;;;19.54;69.09;100779.06;4986974;28;20069;-72
2023/09/01 08:12:29;;;;;;;9.70;2.88;;;20.40;99.90;;;19.38;70.33;100772.34;4999899;28;20029;-72
2023/09/01 08:14:56;;;;;;;7.45;2.60;;;20.20;99.90;;;19.29;71.34;100772.25;4999607;28;20516;-72
2023/09/01 08:17:21;;;;;;;8.02;2.28;;;20.20;99.90;;;19.44;70.86;100771.00;4986194;28;20037;-72
2023/09/01 08:19:48;;;;;;;7.03;2.10;;;20.30;99.90;;;19.70;70.26;100784.88;5003397;28;20413;-72
2023/09/01 08:22:15;;;;;;;6.95;2.42;;;20.40;99.90;;;20.04;69.94;100795.34;4983346;28;20113;-72
2023/09/01 08:24:41;;;;;;;7.72;2.60;;;20.60;99.90;;;20.15;69.20;100787.28;4969895;28;20034;-72
2023/09/01 08:27:07;;;;;;;7.47;2.03;;;20.70;99.90;;;20.39;68.89;100795.00;4983304;28;20037;-72
2023/09/01 08:29:32;;;;;;;4.97;1.88;;;20.90;99.90;;;20.53;68.17;100806.31;4983358;28;20037;-72
2023/09/01 08:32:00;;;;;;;9.00;2.20;;;21.10;99.90;;;20.60;67.30;100812.84;4987783;28;20117;-71
2023/09/01 08:34:29;;;;;;;4.55;1.95;;;21.10;99.90;;;20.32;68.12;100819.72;5003002;28;20030;-73
2023/09/01 08:36:55;;;;;;;5.80;1.88;;;20.90;99.90;;;19.94;69.56;100821.19;4982069;28;20044;-73
2023/09/01 08:39:21;;;;;;;7.43;2.17;;;20.60;99.90;;;19.51;69.75;100817.56;4983090;28;20493;-73
2023/09/01 08:41:49;;;;;;;4.70;1.95;;;20.40;99.90;;;19.34;69.60;100816.28;4998363;28;20492;-73
2023/09/01 08:44:15;;;;;;;4.63;2.00;;;20.20;99.90;;;19.13;71.05;100812.69;4984824;28;20041;-73
2023/09/01 08:46:41;;;;;;;5.38;2.00;;;20.00;99.90;;;19.08;71.94;100809.56;4980686;28;20038;-73
2023/09/01 08:49:08;;;;;;;8.85;2.47;;;20.10;99.90;;;19.50;72.45;100825.69;4984476;28;20092;-73
2023/09/01 08:51:39;;;;;;;6.45;1.70;;;20.40;99.90;;;20.19;70.53;100833.28;4982786;28;20104;-74
2023/09/01 08:54:06;;;;;;;7.22;1.98;;;20.90;99.90;;;21.11;68.56;100835.97;4983240;28;20565;-73
2023/09/01 08:56:34;;;;;;;8.13;1.85;;;21.50;99.90;;;21.60;66.30;100844.97;4985839;28;20026;-74
2023/09/01 08:58:59;;;;;;;9.68;2.42;;;21.80;99.90;;;21.64;65.50;100842.84;5000908;28;20035;-73
2023/09/01 09:01:25;;;;;;;8.75;2.17;;;21.90;99.90;;;21.45;65.85;100841.03;4981712;28;20501;-74
2023/09/01 09:03:51;;;;;;;4.30;2.08;;;21.80;99.90;;;21.18;66.55;100839.78;4999682;28;20029;-73
2023/09/01 09:06:40;;;;;;;8.43;2.00;;;21.60;99.90;;;20.79;67.43;100836.16;4999176;28;20030;-73
2023/09/01 09:09:11;;;;;;;4.85;2.13;;;21.40;99.90;;;20.62;68.32;100837.63;4982729;28;20066;-74
2023/09/01 09:11:58;;;;;;;6.68;2.17;;;21.20;99.90;;;20.45;68.71;100839.06;4999394;28;20033;-73
2023/09/01 09:14:27;;;;;;;8.52;2.00;;;21.00;99.90;;;20.04;69.21;100836.31;4983167;28;20026;-73
2023/09/01 09:16:55;;;;;;;10.68;1.90;;;20.80;99.90;;;19.83;70.30;100838.13;4978544;28;20074;-73
2023/09/01 09:19:23;;;;;;;5.53;1.90;;;20.60;99.90;;;19.64;70.14;100846.78;4986659;28;20064;-73
2023/09/01 09:22:05;;;;;;;6.07;2.03;;;20.30;99.90;;;19.23;71.55;100832.34;5000087;28;20412;-73
2023/09/01 09:24:41;;;;;;;4.32;1.60;;;20.00;99.90;;;18.91;73.13;100832.28;4999871;28;20052;-74
2023/09/01 09:27:16;;;;;;;7.50;2.00;;;19.80;99.90;;;18.76;74.70;100832.47;4983097;28;20444;-73
2023/09/01 09:29:45;;;;;;;4.10;1.75;;;19.70;99.90;;;18.73;75.74;100829.22;4983933;28;20042;-73
2023/09/01 09:32:24;;;;;;;5.13;2.10;;;19.60;99.90;;;18.59;75.99;100831.13;4979066;28;20407;-73
2023/09/01 09:35:23;;;;;;;5.80;1.80;;;19.40;99.90;;;18.40;76.39;100830.88;4997915;28;20027;-73
2023/09/01 09:37:58;;;;;;;5.30;1.90;;;19.30;99.90;;;18.26;76.76;100834.63;4985244;28;20046;-74
2023/09/01 09:40:28;;;;;;;6.30;1.67;;;19.20;99.90;;;18.17;78.02;100846.84;4983568;28;20038;-73
2023/09/01 09:42:59;;;;;;;9.63;2.33;;;19.10;99.90;;;18.17;78.70;100840.69;4997775;28;20034;-73
2023/09/01 09:45:39;;;;;;;6.72;2.20;;;19.10;99.90;;;18.09;79.46;100835.91;4967308;28;20030;-73
2023/09/01 09:48:08;;;;;;;5.40;2.50;;;19.00;99.90;;;18.11;79.60;100841.97;5005197;28;20034;-73
2023/09/01 09:50:35;;;;;;;4.53;1.80;;;18.90;99.90;;;17.97;79.92;100842.19;4988582;28;20569;-73
2023/09/01 09:53:08;;;;;;;7.13;2.38;;;18.90;99.90;;;17.99;79.68;100843.78;4986138;28;20034;-73
2023/09/01 09:55:48;;;;;;;2.88;1.67;;;18.90;99.90;;;18.12;79.99;100840.16;4970675;28;20129;-73
2023/09/01 09:58:29;;;;;;;7.65;1.90;;;19.00;99.90;;;18.32;79.16;100844.81;4989087;28;20034;-74
2023/09/01 10:01:18;;;;;;;9.20;1.90;;;19.20;99.90;;;18.76;78.57;100844.97;4990183;28;20034;-73
2023/09/01 10:03:47;;;;;;;5.85;1.83;;;19.40;99.90;;;19.12;76.93;100848.38;5005860;28;20041;-74
2023/09/01 10:06:19;;;;;;;5.22;1.83;;;19.70;99.90;;;19.45;75.87;100845.63;4993231;28;20047;-74
2023/09/01 10:08:45;;;;;;;9.98;1.95;;;20.00;99.90;;;19.82;75.32;100860.44;4991404;28;20162;-73